createdAt,value
2023-01-19T00:00:21.254Z,1.67
2023-01-19T00:01:21.219Z,1.71
2023-01-19T00:02:21.327Z,1.74
2023-01-19T00:03:21.232Z,1.63
2023-01-19T00:04:21.194Z,1.59
2023-01-19T00:05:21.184Z,1.71
2023-01-19T00:06:21.280Z,1.60
2023-01-19T00:07:21.166Z,1.59
2023-01-19T00:08:21.156Z,1.66
2023-01-19T00:10:21.134Z,1.63
2023-01-19T00:11:21.151Z,1.71
2023-01-19T00:12:21.117Z,1.68
2023-01-19T00:14:21.105Z,1.59
2023-01-19T00:17:21.068Z,1.73
2023-01-19T00:44:22.329Z,2.06
2023-01-19T00:45:22.317Z,2.02
2023-01-19T00:46:22.285Z,1.92
2023-01-19T00:49:22.265Z,2.06
2023-01-19T00:50:22.252Z,2.07
2023-01-19T00:51:22.247Z,2.04
2023-01-19T00:52:22.238Z,2.10
2023-01-19T00:53:22.223Z,2.08
2023-01-19T00:54:22.214Z,2.06
2023-01-19T00:55:22.218Z,2.06
2023-01-19T00:57:22.186Z,2.07
2023-01-19T00:59:22.167Z,2.02
2023-01-19T01:00:22.185Z,2.00
2023-01-19T01:01:22.356Z,2.07
2023-01-19T01:02:22.357Z,2.13
2023-01-19T01:03:22.218Z,2.07
2023-01-19T01:07:22.101Z,2.22
2023-01-19T01:08:22.087Z,2.24
2023-01-19T01:09:22.087Z,2.32
2023-01-19T01:10:22.080Z,2.24
2023-01-19T01:11:22.057Z,2.33
2023-01-19T01:12:22.047Z,2.31
2023-01-19T01:13:23.682Z,2.29
2023-01-19T01:14:22.045Z,2.33
2023-01-19T01:15:22.019Z,2.35
2023-01-19T01:16:22.059Z,2.36
2023-01-19T01:17:21.998Z,2.32
2023-01-19T01:18:21.993Z,2.29
2023-01-19T01:19:21.982Z,2.35
2023-01-19T01:20:21.971Z,2.38
2023-01-19T01:21:21.965Z,2.42
2023-01-19T01:22:21.961Z,2.36
2023-01-19T01:23:21.945Z,2.43
2023-01-19T01:24:21.937Z,2.31
2023-01-19T01:25:21.923Z,2.35
2023-01-19T01:26:21.923Z,2.38
2023-01-19T01:27:21.907Z,2.38
2023-01-19T01:28:21.911Z,2.36
2023-01-19T01:29:21.892Z,2.26
2023-01-19T01:30:21.875Z,2.28
2023-01-19T01:32:29.477Z,2.32
2023-01-19T01:33:41.394Z,2.33
2023-01-19T01:34:29.434Z,2.33
2023-01-19T01:35:29.425Z,2.38
2023-01-19T01:37:32.070Z,2.38
2023-01-19T01:39:49.630Z,2.36
2023-01-19T01:40:49.614Z,2.42
2023-01-19T01:43:37.163Z,2.46
2023-01-19T01:44:34.511Z,2.49
2023-01-19T01:47:22.056Z,2.43
2023-01-19T01:48:22.086Z,2.43
2023-01-19T01:49:22.057Z,2.47
2023-01-19T01:51:29.611Z,2.50
2023-01-19T01:52:29.602Z,2.39
2023-01-19T01:53:29.596Z,2.39
2023-01-19T01:54:29.584Z,2.38
2023-01-19T01:55:29.581Z,2.36
2023-01-19T01:56:29.567Z,2.36
2023-01-19T01:57:29.558Z,2.29
2023-01-19T01:58:29.556Z,2.35
2023-01-19T01:59:29.544Z,2.36
2023-01-19T02:00:29.530Z,2.35
2023-01-19T02:01:29.637Z,2.29
2023-01-19T02:02:29.511Z,2.31
2023-01-19T02:03:29.645Z,2.29
2023-01-19T02:04:29.499Z,2.32
2023-01-19T02:05:29.485Z,2.26
2023-01-19T02:06:29.478Z,2.28
2023-01-19T02:07:29.466Z,2.20
2023-01-19T02:08:29.462Z,2.25
2023-01-19T02:09:29.449Z,2.20
2023-01-19T02:10:29.441Z,2.17
2023-01-19T02:11:29.430Z,2.20
2023-01-19T02:12:29.419Z,2.18
2023-01-19T02:13:29.414Z,2.22
2023-01-19T02:14:29.405Z,2.15
2023-01-19T02:15:29.393Z,2.26
2023-01-19T02:16:29.424Z,2.24
2023-01-19T02:17:29.379Z,2.35
2023-01-19T02:18:29.371Z,2.29
2023-01-19T02:19:29.385Z,2.31
2023-01-19T02:20:29.343Z,2.25
2023-01-19T02:21:29.337Z,2.32
2023-01-19T02:22:29.332Z,2.31
2023-01-19T02:23:29.320Z,2.44
2023-01-19T02:24:29.335Z,2.33
2023-01-19T02:25:29.308Z,2.36
2023-01-19T02:26:29.298Z,2.36
2023-01-19T02:27:29.284Z,2.36
2023-01-19T02:28:29.271Z,2.47
2023-01-19T02:29:29.269Z,2.42
2023-01-19T02:30:29.258Z,2.42
2023-01-19T02:31:29.258Z,2.39
2023-01-19T02:32:29.230Z,2.49
2023-01-19T02:33:29.627Z,2.46
2023-01-19T02:34:29.219Z,2.46
2023-01-19T02:35:29.325Z,2.57
2023-01-19T02:36:29.200Z,2.54
2023-01-19T02:37:29.189Z,2.61
2023-01-19T02:38:29.181Z,2.53
2023-01-19T02:39:29.189Z,2.57
2023-01-19T02:40:29.160Z,2.60
2023-01-19T02:41:29.153Z,2.65
2023-01-19T02:42:29.143Z,2.57
2023-01-19T02:43:29.135Z,2.54
2023-01-19T02:44:29.129Z,2.61
2023-01-19T02:45:29.116Z,2.61
2023-01-19T02:46:29.105Z,2.65
2023-01-19T02:47:29.101Z,2.71
2023-01-19T02:48:29.088Z,2.62
2023-01-19T02:49:29.080Z,2.64
2023-01-19T02:50:29.068Z,2.68
2023-01-19T02:51:29.084Z,2.67
2023-01-19T02:52:29.053Z,2.67
2023-01-19T02:53:29.044Z,2.65
2023-01-19T02:54:29.033Z,2.72
2023-01-19T02:55:29.037Z,2.69
2023-01-19T02:56:29.014Z,2.72
2023-01-19T02:57:29.006Z,2.65
2023-01-19T02:58:28.997Z,2.69
2023-01-19T02:59:28.987Z,2.69
2023-01-19T03:00:28.994Z,2.67
2023-01-19T03:01:29.087Z,2.69
2023-01-19T03:02:29.032Z,2.62
2023-01-19T03:03:28.962Z,2.65
2023-01-19T03:04:28.968Z,2.65
2023-01-19T03:05:28.950Z,2.60
2023-01-19T03:06:28.927Z,2.61
2023-01-19T03:07:29.012Z,2.61
2023-01-19T03:08:28.904Z,2.61
2023-01-19T03:09:28.897Z,2.61
2023-01-19T03:10:28.892Z,2.61
2023-01-19T03:11:28.880Z,2.61
2023-01-19T03:12:28.866Z,2.57
2023-01-19T03:13:28.862Z,2.46
2023-01-19T03:14:28.847Z,2.44
2023-01-19T03:15:28.907Z,2.49
2023-01-19T03:16:28.903Z,2.49
2023-01-19T03:17:28.826Z,2.35
2023-01-19T03:18:28.819Z,2.44
2023-01-19T03:19:28.808Z,2.29
2023-01-19T03:20:28.816Z,2.33
2023-01-19T03:21:28.798Z,2.39
2023-01-19T03:22:28.780Z,2.35
2023-01-19T03:23:28.792Z,2.33
2023-01-19T03:24:28.766Z,2.32
2023-01-19T03:25:28.751Z,2.31
2023-01-19T03:26:28.741Z,2.36
2023-01-19T03:27:28.749Z,2.29
2023-01-19T03:28:28.735Z,2.38
2023-01-19T03:29:28.722Z,2.43
2023-01-19T03:30:28.702Z,2.31
2023-01-19T03:31:28.692Z,2.31
2023-01-19T03:32:28.686Z,2.29
2023-01-19T03:33:28.682Z,2.28
2023-01-19T03:34:28.661Z,2.26
2023-01-19T03:35:28.659Z,2.35
2023-01-19T03:36:28.647Z,2.31
2023-01-19T03:37:28.646Z,2.29
2023-01-19T03:38:28.826Z,2.39
2023-01-19T03:39:28.633Z,2.35
2023-01-19T03:40:28.609Z,2.32
2023-01-19T03:41:28.600Z,2.35
2023-01-19T03:42:28.625Z,2.38
2023-01-19T03:43:28.580Z,2.31
2023-01-19T03:44:28.576Z,2.33
2023-01-19T03:45:28.563Z,2.32
2023-01-19T03:46:28.566Z,2.33
2023-01-19T03:47:28.543Z,2.33
2023-01-19T03:48:28.532Z,2.33
2023-01-19T03:49:28.535Z,2.31
2023-01-19T03:50:28.517Z,2.31
2023-01-19T03:51:28.519Z,2.32
2023-01-19T03:52:28.503Z,2.32
2023-01-19T03:53:28.499Z,2.33
2023-01-19T03:54:28.495Z,2.32
2023-01-19T03:55:28.497Z,2.42
2023-01-19T03:56:28.463Z,2.39
2023-01-19T03:57:28.459Z,2.39
2023-01-19T03:58:28.448Z,2.36
2023-01-19T03:59:28.440Z,2.38
2023-01-19T04:00:28.422Z,2.31
2023-01-19T04:01:28.467Z,2.47
2023-01-19T04:02:28.460Z,2.46
2023-01-19T04:03:28.399Z,2.50
2023-01-19T04:04:28.394Z,2.53
2023-01-19T04:05:28.380Z,2.46
2023-01-19T04:06:28.376Z,2.42
2023-01-19T04:07:28.361Z,2.49
2023-01-19T04:08:28.355Z,2.47
2023-01-19T04:09:28.339Z,2.51
2023-01-19T04:10:28.330Z,2.56
2023-01-19T04:11:28.343Z,2.56
2023-01-19T04:12:28.310Z,2.57
2023-01-19T04:13:28.313Z,2.61
2023-01-19T04:14:28.293Z,2.60
2023-01-19T04:15:28.285Z,2.54
2023-01-19T04:16:28.276Z,2.61
2023-01-19T04:17:28.283Z,2.61
2023-01-19T04:18:28.258Z,2.60
2023-01-19T04:19:28.249Z,2.67
2023-01-19T04:20:28.310Z,2.62
2023-01-19T04:21:28.239Z,2.74
2023-01-19T04:22:28.220Z,2.68
2023-01-19T04:23:28.214Z,2.65
2023-01-19T04:24:28.203Z,2.69
2023-01-19T04:25:28.200Z,2.74
2023-01-19T04:26:28.194Z,2.67
2023-01-19T04:27:28.196Z,2.64
2023-01-19T04:28:28.170Z,2.69
2023-01-19T04:29:28.159Z,2.74
2023-01-19T04:30:28.146Z,2.69
2023-01-19T04:31:28.189Z,2.67
2023-01-19T04:32:28.129Z,2.64
2023-01-19T04:33:28.121Z,2.65
2023-01-19T04:34:28.116Z,2.68
2023-01-19T04:35:28.102Z,2.74
2023-01-19T04:36:28.093Z,2.67
2023-01-19T04:37:28.084Z,2.62
2023-01-19T04:38:28.077Z,2.69
2023-01-19T04:39:28.066Z,2.64
2023-01-19T04:40:28.056Z,2.65
2023-01-19T04:41:29.669Z,2.69
2023-01-19T04:42:28.036Z,2.68
2023-01-19T04:43:28.109Z,2.67
2023-01-19T04:44:28.018Z,2.69
2023-01-19T04:45:28.017Z,2.69
2023-01-19T04:46:28.067Z,2.69
2023-01-19T04:47:27.995Z,2.67
2023-01-19T04:48:27.982Z,2.65
2023-01-19T04:49:27.975Z,2.65
2023-01-19T04:50:27.968Z,2.61
2023-01-19T04:51:27.962Z,2.56
2023-01-19T04:52:27.943Z,2.60
2023-01-19T04:53:27.944Z,2.62
2023-01-19T04:54:27.949Z,2.61
2023-01-19T04:55:27.919Z,2.61
2023-01-19T04:56:27.936Z,2.64
2023-01-19T04:57:27.902Z,2.62
2023-01-19T04:58:27.896Z,2.61
2023-01-19T04:59:27.948Z,2.60
2023-01-19T05:00:27.891Z,2.57
2023-01-19T05:01:28.003Z,2.60
2023-01-19T05:02:27.943Z,2.46
2023-01-19T05:03:27.855Z,2.56
2023-01-19T05:04:27.837Z,2.51
2023-01-19T05:05:27.828Z,2.49
2023-01-19T05:06:27.829Z,2.50
2023-01-19T05:07:27.809Z,2.46
2023-01-19T05:08:27.803Z,2.50
2023-01-19T05:09:27.793Z,2.46
2023-01-19T05:10:27.776Z,2.49
2023-01-19T05:11:27.775Z,2.42
2023-01-19T05:12:27.769Z,2.43
2023-01-19T05:13:27.757Z,2.44
2023-01-19T05:14:27.751Z,2.46
2023-01-19T05:15:27.750Z,2.29
2023-01-19T05:16:27.766Z,2.29
2023-01-19T05:17:27.719Z,2.32
2023-01-19T05:18:27.708Z,2.32
2023-01-19T05:19:27.700Z,2.31
2023-01-19T05:20:27.686Z,2.24
2023-01-19T05:21:27.683Z,2.22
2023-01-19T05:22:27.673Z,2.22
2023-01-19T05:23:27.665Z,2.20
2023-01-19T05:24:27.658Z,2.22
2023-01-19T05:25:27.651Z,2.22
2023-01-19T05:26:27.637Z,2.17
2023-01-19T05:27:27.623Z,2.20
2023-01-19T05:28:27.618Z,2.20
2023-01-19T05:29:27.608Z,2.17
2023-01-19T05:30:27.595Z,2.17
2023-01-19T05:31:27.781Z,2.20
2023-01-19T05:32:27.602Z,2.26
2023-01-19T05:33:27.568Z,2.20
2023-01-19T05:34:27.566Z,2.22
2023-01-19T05:35:35.699Z,2.11
2023-01-19T05:36:27.537Z,2.11
2023-01-19T05:37:27.531Z,2.04
2023-01-19T05:38:35.368Z,2.10
2023-01-19T05:39:27.523Z,2.10
2023-01-19T05:40:27.512Z,2.10
2023-01-19T05:41:27.498Z,2.04
2023-01-19T05:42:27.492Z,2.11
2023-01-19T05:43:27.479Z,2.07
2023-01-19T05:44:27.483Z,2.06
2023-01-19T05:45:27.458Z,2.04
2023-01-19T05:46:27.563Z,1.97
2023-01-19T05:47:27.460Z,1.95
2023-01-19T05:48:27.433Z,1.97
2023-01-19T05:49:27.434Z,1.97
2023-01-19T05:50:27.411Z,1.99
2023-01-19T05:51:27.400Z,1.99
2023-01-19T05:52:27.386Z,2.00
2023-01-19T05:53:27.383Z,1.92
2023-01-19T05:54:27.371Z,1.89
2023-01-19T05:55:27.366Z,1.94
2023-01-19T05:56:27.356Z,1.88
2023-01-19T05:57:27.346Z,1.88
2023-01-19T05:58:27.346Z,1.76
2023-01-19T05:59:27.332Z,1.91
2023-01-19T06:00:27.324Z,1.84
2023-01-19T06:01:27.495Z,1.85
2023-01-19T06:02:27.328Z,1.80
2023-01-19T06:03:27.400Z,1.81
2023-01-19T06:04:27.275Z,1.81
2023-01-19T06:05:27.269Z,1.81
2023-01-19T06:06:27.259Z,1.76
2023-01-19T06:07:29.046Z,1.76
2023-01-19T06:08:27.244Z,1.63
2023-01-19T06:09:27.228Z,1.76
2023-01-19T06:10:27.219Z,1.71
2023-01-19T06:11:27.224Z,1.56
2023-01-19T06:12:27.201Z,1.60
2023-01-19T06:13:27.195Z,1.66
2023-01-19T06:14:27.186Z,1.60
2023-01-19T06:15:27.173Z,1.63
2023-01-19T06:16:27.193Z,1.60
2023-01-19T06:17:27.154Z,1.67
2023-01-19T06:18:27.151Z,1.70
2023-01-19T06:19:27.151Z,1.60
2023-01-19T06:20:27.130Z,1.58
2023-01-19T06:21:27.118Z,1.58
2023-01-19T06:22:27.105Z,1.55
2023-01-19T06:23:27.101Z,1.56
2023-01-19T06:24:27.089Z,1.59
2023-01-19T06:25:27.079Z,1.48
2023-01-19T06:26:27.069Z,1.49
2023-01-19T06:27:27.062Z,1.41
2023-01-19T06:28:27.050Z,1.48
2023-01-19T06:29:28.662Z,1.50
2023-01-19T06:30:27.034Z,1.45
2023-01-19T06:31:27.040Z,1.49
2023-01-19T06:32:27.019Z,1.48
2023-01-19T06:33:27.006Z,1.52
2023-01-19T06:34:26.995Z,1.55
2023-01-19T06:35:27.004Z,1.62
2023-01-19T06:36:26.977Z,1.44
2023-01-19T06:37:26.962Z,1.49
2023-01-19T06:38:26.959Z,1.50
2023-01-19T06:39:26.944Z,1.55
2023-01-19T06:40:26.935Z,1.55
2023-01-19T06:41:26.932Z,1.53
2023-01-19T06:42:26.917Z,1.55
2023-01-19T06:43:26.912Z,1.63
2023-01-19T06:44:27.250Z,1.56
2023-01-19T06:45:26.907Z,1.63
2023-01-19T06:46:26.880Z,1.52
2023-01-19T06:47:26.872Z,1.62
2023-01-19T06:48:26.860Z,1.62
2023-01-19T06:49:26.849Z,1.50
2023-01-19T06:50:26.841Z,1.52
2023-01-19T06:51:26.883Z,1.49
2023-01-19T06:52:26.829Z,1.52
2023-01-19T06:53:26.828Z,1.45
2023-01-19T06:54:26.805Z,1.55
2023-01-19T06:55:27.949Z,1.62
2023-01-19T06:56:26.782Z,1.56
2023-01-19T06:57:26.775Z,1.59
2023-01-19T06:58:26.780Z,1.52
2023-01-19T06:59:26.759Z,1.59
2023-01-19T07:00:26.754Z,1.63
2023-01-19T07:01:26.896Z,1.52
2023-01-19T07:02:28.582Z,1.59
2023-01-19T07:03:26.856Z,1.55
2023-01-19T07:04:26.715Z,1.59
2023-01-19T07:05:26.697Z,1.56
2023-01-19T07:06:26.684Z,1.50
2023-01-19T07:07:26.705Z,1.50
2023-01-19T07:08:26.676Z,1.45
2023-01-19T07:09:26.658Z,1.58
2023-01-19T07:10:26.645Z,1.48
2023-01-19T07:11:33.061Z,1.45
2023-01-19T07:12:26.628Z,1.48
2023-01-19T07:13:26.615Z,1.50
2023-01-19T07:14:26.614Z,1.52
2023-01-19T07:15:26.604Z,1.53
2023-01-19T07:16:26.634Z,1.45
2023-01-19T07:17:26.576Z,1.52
2023-01-19T07:18:26.576Z,1.50
2023-01-19T07:19:26.560Z,1.42
2023-01-19T07:20:26.557Z,1.49
2023-01-19T07:21:29.086Z,1.49
2023-01-19T07:22:26.533Z,1.48
2023-01-19T07:23:26.545Z,1.62
2023-01-19T07:24:26.518Z,1.58
2023-01-19T07:25:26.503Z,1.59
2023-01-19T07:26:26.492Z,1.53
2023-01-19T07:27:26.483Z,1.56
2023-01-19T07:28:26.473Z,1.58
2023-01-19T07:29:26.461Z,1.56
2023-01-19T07:30:26.534Z,1.62
2023-01-19T07:31:26.601Z,1.60
2023-01-19T07:32:26.434Z,1.62
2023-01-19T07:33:26.452Z,1.60
2023-01-19T07:34:26.431Z,1.62
2023-01-19T07:35:26.406Z,1.67
2023-01-19T07:36:26.402Z,1.62
2023-01-19T07:37:26.384Z,1.73
2023-01-19T07:38:26.380Z,1.67
2023-01-19T07:39:26.392Z,1.67
2023-01-19T07:40:26.365Z,1.73
2023-01-19T07:41:26.355Z,1.66
2023-01-19T07:42:26.344Z,1.63
2023-01-19T07:43:26.332Z,1.71
2023-01-19T07:44:26.317Z,1.68
2023-01-19T07:45:27.885Z,1.70
2023-01-19T07:46:26.320Z,1.67
2023-01-19T07:47:26.300Z,1.66
2023-01-19T07:48:26.285Z,1.71
2023-01-19T07:49:26.272Z,1.76
2023-01-19T07:50:26.300Z,1.73
2023-01-19T07:51:26.251Z,1.80
2023-01-19T07:52:26.245Z,1.78
2023-01-19T07:53:26.229Z,1.76
2023-01-19T07:54:26.238Z,1.76
2023-01-19T07:55:26.230Z,1.80
2023-01-19T07:56:26.203Z,1.80
2023-01-19T07:57:26.191Z,1.80
2023-01-19T07:58:26.182Z,1.81
2023-01-19T07:59:26.172Z,1.81
2023-01-19T08:00:26.193Z,1.87
2023-01-19T08:01:26.309Z,1.94
2023-01-19T08:02:26.187Z,1.92
2023-01-19T08:03:26.136Z,1.84
2023-01-19T08:04:26.139Z,1.80
2023-01-19T08:05:26.117Z,1.85
2023-01-19T08:06:26.110Z,1.78
2023-01-19T08:07:26.097Z,1.88
2023-01-19T08:08:26.089Z,1.84
2023-01-19T08:09:26.145Z,1.78
2023-01-19T08:10:26.088Z,1.81
2023-01-19T08:11:26.085Z,1.81
2023-01-19T08:12:26.049Z,1.80
2023-01-19T08:13:26.038Z,1.84
2023-01-19T08:14:26.038Z,1.84
2023-01-19T08:15:26.119Z,1.80
2023-01-19T08:16:26.015Z,1.80
2023-01-19T08:17:26.000Z,1.80
2023-01-19T08:18:25.992Z,1.80
2023-01-19T08:19:25.983Z,1.81
2023-01-19T08:20:25.993Z,1.85
2023-01-19T08:21:25.960Z,1.85
2023-01-19T08:22:25.952Z,1.85
2023-01-19T08:23:25.944Z,1.88
2023-01-19T08:24:25.933Z,1.91
2023-01-19T08:25:25.925Z,1.89
2023-01-19T08:26:25.917Z,1.80
2023-01-19T08:27:25.926Z,1.91
2023-01-19T08:28:25.898Z,1.88
2023-01-19T08:29:25.886Z,1.88
2023-01-19T08:30:25.876Z,1.89
2023-01-19T08:31:25.955Z,1.89
2023-01-19T08:32:25.880Z,1.92
2023-01-19T08:33:25.854Z,1.88
2023-01-19T08:34:25.843Z,1.91
2023-01-19T08:35:25.832Z,1.87
2023-01-19T08:36:25.817Z,1.97
2023-01-19T08:37:25.806Z,1.89
2023-01-19T08:38:25.797Z,2.00
2023-01-19T08:39:25.787Z,1.88
2023-01-19T08:40:25.779Z,1.97
2023-01-19T08:41:25.782Z,1.92
2023-01-19T08:42:25.762Z,1.95
2023-01-19T08:43:25.772Z,1.91
2023-01-19T08:44:25.749Z,1.94
2023-01-19T08:45:25.731Z,1.94
2023-01-19T08:46:25.795Z,1.92
2023-01-19T08:47:25.757Z,1.99
2023-01-19T08:48:25.701Z,1.94
2023-01-19T08:49:25.905Z,2.00
2023-01-19T08:50:25.682Z,2.00
2023-01-19T08:51:25.674Z,1.97
2023-01-19T08:52:25.663Z,1.92
2023-01-19T08:53:25.653Z,1.92
2023-01-19T08:54:25.681Z,1.94
2023-01-19T08:55:25.646Z,1.94
2023-01-19T08:56:25.628Z,1.92
2023-01-19T08:57:25.618Z,1.99
2023-01-19T08:58:25.617Z,1.94
2023-01-19T08:59:25.797Z,1.97
2023-01-19T09:00:25.605Z,2.00
2023-01-19T09:01:25.763Z,2.02
2023-01-19T09:02:25.740Z,2.00
2023-01-19T09:03:25.600Z,1.99
2023-01-19T09:04:25.560Z,1.95
2023-01-19T09:05:25.544Z,1.94
2023-01-19T09:06:25.552Z,2.06
2023-01-19T09:07:25.521Z,1.97
2023-01-19T09:08:25.513Z,2.10
2023-01-19T09:09:25.506Z,2.07
2023-01-19T09:10:25.507Z,2.06
2023-01-19T09:11:25.492Z,2.04
2023-01-19T09:12:25.481Z,2.06
2023-01-19T09:13:25.482Z,2.00
2023-01-19T09:14:25.457Z,2.08
2023-01-19T09:15:25.491Z,2.04
2023-01-19T09:16:25.460Z,2.07
2023-01-19T09:17:25.429Z,2.10
2023-01-19T09:18:25.426Z,2.00
2023-01-19T09:19:25.411Z,2.07
2023-01-19T09:20:25.403Z,2.06
2023-01-19T09:21:25.437Z,2.04
2023-01-19T09:22:25.381Z,2.07
2023-01-19T09:23:25.369Z,2.07
2023-01-19T09:24:25.359Z,2.06
2023-01-19T09:25:25.354Z,2.15
2023-01-19T09:26:25.348Z,2.14
2023-01-19T09:27:25.333Z,2.11
2023-01-19T09:28:25.322Z,2.08
2023-01-19T09:29:25.313Z,2.13
2023-01-19T09:30:25.307Z,2.11
2023-01-19T09:31:25.414Z,2.22
2023-01-19T09:32:25.286Z,2.25
2023-01-19T09:33:25.282Z,2.15
2023-01-19T09:34:25.265Z,2.13
2023-01-19T09:35:25.271Z,2.14
2023-01-19T09:36:25.244Z,2.18
2023-01-19T09:37:25.240Z,2.15
2023-01-19T09:38:25.228Z,2.22
2023-01-19T09:39:25.217Z,2.22
2023-01-19T09:40:25.213Z,2.29
2023-01-19T09:41:25.195Z,2.24
2023-01-19T09:42:25.190Z,2.17
2023-01-19T09:43:25.189Z,2.22
2023-01-19T09:44:25.168Z,2.17
2023-01-19T09:45:25.172Z,2.20
2023-01-19T09:46:25.245Z,2.17
2023-01-19T09:47:25.168Z,2.18
2023-01-19T09:48:25.136Z,2.18
2023-01-19T09:49:25.620Z,2.22
2023-01-19T09:50:25.126Z,2.18
2023-01-19T09:51:25.101Z,2.22
2023-01-19T09:52:25.093Z,2.24
2023-01-19T09:53:25.083Z,2.22
2023-01-19T09:54:25.071Z,2.20
2023-01-19T09:55:25.063Z,2.22
2023-01-19T09:56:25.070Z,2.24
2023-01-19T09:57:25.049Z,2.22
2023-01-19T09:58:25.036Z,2.22
2023-01-19T09:59:25.035Z,2.17
2023-01-19T10:00:25.031Z,2.29
2023-01-19T10:01:25.149Z,2.25
2023-01-19T10:02:24.999Z,2.26
2023-01-19T10:03:25.041Z,2.28
2023-01-19T10:04:24.997Z,2.32
2023-01-19T10:05:24.972Z,2.26
2023-01-19T10:06:24.961Z,2.26
2023-01-19T10:07:24.966Z,2.20
2023-01-19T10:08:24.938Z,2.15
2023-01-19T10:09:24.927Z,2.20
2023-01-19T10:10:24.924Z,2.22
2023-01-19T10:11:25.508Z,2.25
2023-01-19T10:12:24.915Z,2.18
2023-01-19T10:13:24.905Z,2.29
2023-01-19T10:14:24.885Z,2.26
2023-01-19T10:15:24.881Z,2.35
2023-01-19T10:16:24.888Z,2.32
2023-01-19T10:17:24.855Z,2.29
2023-01-19T10:18:24.844Z,2.31
2023-01-19T10:19:24.867Z,2.26
2023-01-19T10:20:24.826Z,2.32
2023-01-19T10:21:24.814Z,2.32
2023-01-19T10:22:24.817Z,2.35
2023-01-19T10:23:24.798Z,2.28
2023-01-19T10:24:24.811Z,2.29
2023-01-19T10:25:24.828Z,2.28
2023-01-19T10:26:24.802Z,2.39
2023-01-19T10:27:24.805Z,2.33
2023-01-19T10:28:24.747Z,2.32
2023-01-19T10:29:24.739Z,2.39
2023-01-19T10:30:24.748Z,2.36
2023-01-19T10:31:24.943Z,2.35
2023-01-19T10:32:24.711Z,2.36
2023-01-19T10:33:24.713Z,2.35
2023-01-19T10:34:24.713Z,2.33
2023-01-19T10:35:24.866Z,2.38
2023-01-19T10:36:24.682Z,2.42
2023-01-19T10:37:24.716Z,2.39
2023-01-19T10:38:24.660Z,2.36
2023-01-19T10:39:24.645Z,2.33
2023-01-19T10:40:24.634Z,2.38
2023-01-19T10:41:24.631Z,2.33
2023-01-19T10:42:24.651Z,2.42
2023-01-19T10:43:24.655Z,2.38
2023-01-19T10:44:24.612Z,2.43
2023-01-19T10:45:24.718Z,2.43
2023-01-19T10:46:24.735Z,2.39
2023-01-19T10:47:24.570Z,2.39
2023-01-19T10:48:24.565Z,2.36
2023-01-19T10:49:24.565Z,2.36
2023-01-19T10:50:24.552Z,2.43
2023-01-19T10:51:24.615Z,2.44
2023-01-19T10:52:24.518Z,2.42
2023-01-19T10:53:24.529Z,2.38
2023-01-19T10:54:24.520Z,2.35
2023-01-19T10:55:24.502Z,2.39
2023-01-19T10:56:24.493Z,2.31
2023-01-19T10:57:24.489Z,2.49
2023-01-19T10:58:24.483Z,2.39
2023-01-19T10:59:24.525Z,2.39
2023-01-19T11:00:24.484Z,2.44
2023-01-19T11:01:24.597Z,2.50
2023-01-19T11:02:24.611Z,2.47
2023-01-19T11:03:24.503Z,2.50
2023-01-19T11:04:24.428Z,2.49
2023-01-19T11:05:24.402Z,2.47
2023-01-19T11:06:24.391Z,2.46
2023-01-19T11:07:24.421Z,2.61
2023-01-19T11:08:24.374Z,2.61
2023-01-19T11:09:24.370Z,2.57
2023-01-19T11:10:24.355Z,2.60
2023-01-19T11:11:24.344Z,2.62
2023-01-19T11:12:24.337Z,2.74
2023-01-19T11:13:24.324Z,2.69
2023-01-19T11:14:24.316Z,2.64
2023-01-19T11:15:24.316Z,2.62
2023-01-19T11:16:24.341Z,2.74
2023-01-19T11:17:24.285Z,2.72
2023-01-19T11:18:24.301Z,2.65
2023-01-19T11:19:24.276Z,2.65
2023-01-19T11:20:24.255Z,2.67
2023-01-19T11:21:25.847Z,2.71
2023-01-19T11:22:24.250Z,2.72
2023-01-19T11:23:24.245Z,2.67
2023-01-19T11:24:24.222Z,2.72
2023-01-19T11:25:24.212Z,2.72
2023-01-19T11:26:24.216Z,2.65
2023-01-19T11:27:24.201Z,2.80
2023-01-19T11:28:24.186Z,2.80
2023-01-19T11:29:24.172Z,2.80
2023-01-19T11:30:24.168Z,2.85
2023-01-19T11:31:24.324Z,2.77
2023-01-19T11:32:24.141Z,2.75
2023-01-19T11:33:24.137Z,2.82
2023-01-19T11:34:24.124Z,2.82
2023-01-19T11:35:24.121Z,2.83
2023-01-19T11:36:24.105Z,2.75
2023-01-19T11:37:24.104Z,2.80
2023-01-19T11:38:24.091Z,2.74
2023-01-19T11:39:24.105Z,2.77
2023-01-19T11:40:24.071Z,2.79
2023-01-19T11:41:24.063Z,2.79
2023-01-19T11:42:24.053Z,2.77
2023-01-19T11:43:24.047Z,2.87
2023-01-19T11:44:24.039Z,2.75
2023-01-19T11:45:24.044Z,2.80
2023-01-19T11:46:24.015Z,2.79
2023-01-19T11:47:24.004Z,2.79
2023-01-19T11:48:23.995Z,2.79
2023-01-19T11:49:23.988Z,2.74
2023-01-19T11:50:24.001Z,2.87
2023-01-19T11:51:23.969Z,2.80
2023-01-19T11:52:23.960Z,2.77
2023-01-19T11:53:23.953Z,2.80
2023-01-19T11:54:23.937Z,2.80
2023-01-19T11:55:23.951Z,2.79
2023-01-19T11:56:23.921Z,2.90
2023-01-19T11:57:23.916Z,2.86
2023-01-19T11:58:23.927Z,2.93
2023-01-19T11:59:23.902Z,2.93
2023-01-19T12:00:23.903Z,2.92
2023-01-19T12:01:23.962Z,2.92
2023-01-19T12:02:23.927Z,2.85
2023-01-19T12:03:23.969Z,2.95
2023-01-19T12:04:23.845Z,2.97
2023-01-19T12:05:23.851Z,2.97
2023-01-19T12:06:23.830Z,2.92
2023-01-19T12:07:23.829Z,3.01
2023-01-19T12:08:23.813Z,3.04
2023-01-19T12:09:23.801Z,3.05
2023-01-19T12:10:23.801Z,2.97
2023-01-19T12:11:23.838Z,2.90
2023-01-19T12:12:23.784Z,3.03
2023-01-19T12:13:23.767Z,3.00
2023-01-19T12:14:23.754Z,3.00
2023-01-19T12:15:23.762Z,3.00
2023-01-19T12:16:23.809Z,3.01
2023-01-19T12:17:23.730Z,2.98
2023-01-19T12:18:23.717Z,2.97
2023-01-19T12:19:23.709Z,2.98
2023-01-19T12:20:23.701Z,3.07
2023-01-19T12:21:23.692Z,2.97
2023-01-19T12:22:23.690Z,3.04
2023-01-19T12:23:23.687Z,2.95
2023-01-19T12:24:23.739Z,2.97
2023-01-19T12:25:23.659Z,3.00
2023-01-19T12:26:23.651Z,3.01
2023-01-19T12:27:23.659Z,2.95
2023-01-19T12:28:23.624Z,3.05
2023-01-19T12:29:23.614Z,2.98
2023-01-19T12:30:23.614Z,3.08
2023-01-19T12:31:23.734Z,2.98
2023-01-19T12:32:23.597Z,2.95
2023-01-19T12:33:23.580Z,3.00
2023-01-19T12:34:23.575Z,2.95
2023-01-19T12:35:23.570Z,2.97
2023-01-19T12:36:23.552Z,3.05
2023-01-19T12:37:23.545Z,2.98
2023-01-19T12:38:23.531Z,3.03
2023-01-19T12:39:23.527Z,2.93
2023-01-19T12:40:23.527Z,2.98
2023-01-19T12:41:23.517Z,2.98
2023-01-19T12:42:23.501Z,3.03
2023-01-19T12:43:23.528Z,2.97
2023-01-19T12:44:23.480Z,3.04
2023-01-19T12:45:23.478Z,3.00
2023-01-19T12:46:23.499Z,2.98
2023-01-19T12:47:23.450Z,3.11
2023-01-19T12:48:23.440Z,3.14
2023-01-19T12:49:23.435Z,3.10
2023-01-19T12:50:23.508Z,3.22
2023-01-19T12:51:23.437Z,3.22
2023-01-19T12:52:23.408Z,3.19
2023-01-19T12:53:23.398Z,3.29
2023-01-19T12:54:23.388Z,3.16
2023-01-19T12:55:23.380Z,3.28
2023-01-19T12:56:23.366Z,3.26
2023-01-19T12:57:23.365Z,3.26
2023-01-19T12:58:23.360Z,3.11
2023-01-19T12:59:23.711Z,3.16
2023-01-19T13:00:23.349Z,3.13
2023-01-19T13:01:23.478Z,3.14
2023-01-19T13:02:23.377Z,3.14
2023-01-19T13:03:23.306Z,3.14
2023-01-19T13:04:23.297Z,3.18
2023-01-19T13:05:23.292Z,3.14
2023-01-19T13:06:23.277Z,3.13
2023-01-19T13:07:23.272Z,3.18
2023-01-19T13:08:23.259Z,3.18
2023-01-19T13:09:23.247Z,3.31
2023-01-19T13:10:23.242Z,3.31
2023-01-19T13:11:26.023Z,3.22
2023-01-19T13:12:23.226Z,3.19
2023-01-19T13:13:23.213Z,3.14
2023-01-19T13:14:23.201Z,3.18
2023-01-19T13:15:23.242Z,3.18
2023-01-19T13:16:23.183Z,3.14
2023-01-19T13:17:23.180Z,3.11
2023-01-19T13:18:23.167Z,3.19
2023-01-19T13:19:23.162Z,3.21
2023-01-19T13:20:23.150Z,3.21
2023-01-19T13:21:23.139Z,3.14
2023-01-19T13:22:23.133Z,3.13
2023-01-19T13:23:23.129Z,3.22
2023-01-19T13:24:23.117Z,3.16
2023-01-19T13:25:23.107Z,3.25
2023-01-19T13:26:23.091Z,3.13
2023-01-19T13:27:23.082Z,3.16
2023-01-19T13:28:23.074Z,3.16
2023-01-19T13:29:23.065Z,3.28
2023-01-19T13:30:23.092Z,3.31
2023-01-19T13:31:23.182Z,3.28
2023-01-19T13:32:23.037Z,3.26
2023-01-19T13:33:23.029Z,3.34
2023-01-19T13:34:23.019Z,3.25
2023-01-19T13:35:23.015Z,3.26
2023-01-19T13:36:23.009Z,3.31
2023-01-19T13:37:22.992Z,3.26
2023-01-19T13:38:22.989Z,3.29
2023-01-19T13:39:22.980Z,3.25
2023-01-19T13:40:22.974Z,3.23
2023-01-19T13:41:22.963Z,3.26
2023-01-19T13:42:22.953Z,3.22
2023-01-19T13:43:22.942Z,3.25
2023-01-19T13:44:22.939Z,3.26
2023-01-19T13:45:22.927Z,3.25
2023-01-19T13:46:22.955Z,3.28
2023-01-19T13:47:22.927Z,3.31
2023-01-19T13:48:22.895Z,3.32
2023-01-19T13:49:22.887Z,3.37
2023-01-19T13:50:22.873Z,3.34
2023-01-19T13:51:22.868Z,3.25
2023-01-19T13:52:22.860Z,3.28
2023-01-19T13:53:22.846Z,3.25
2023-01-19T13:54:22.838Z,3.18
2023-01-19T13:55:22.829Z,3.19
2023-01-19T13:56:22.822Z,3.25
2023-01-19T13:57:22.842Z,3.23
2023-01-19T13:58:22.815Z,3.34
2023-01-19T13:59:22.804Z,3.16
2023-01-19T14:00:22.814Z,3.25
2023-01-19T14:01:23.426Z,3.29
2023-01-19T14:02:22.968Z,3.31
2023-01-19T14:03:22.860Z,3.26